createdAt,value
2023-03-21T00:01:16.472Z,59.53
2023-03-21T00:03:46.799Z,59.56
2023-03-21T00:06:15.579Z,59.57
2023-03-21T00:08:44.748Z,60.13
2023-03-21T00:11:13.828Z,59.91
2023-03-21T00:13:43.308Z,60.09
2023-03-21T00:16:20.935Z,59.75
2023-03-21T00:19:03.152Z,60.35
2023-03-21T00:21:55.237Z,60.39
2023-03-21T00:24:22.095Z,60.29
2023-03-21T00:26:50.992Z,60.73
2023-03-21T00:29:19.966Z,60.51
2023-03-21T00:31:48.284Z,60.69
2023-03-21T00:34:22.711Z,60.69
2023-03-21T00:37:01.663Z,60.27
2023-03-21T00:39:29.798Z,60.06
2023-03-21T00:41:57.827Z,59.89
2023-03-21T00:44:26.311Z,60.33
2023-03-21T00:47:06.566Z,60.37
2023-03-21T00:49:38.522Z,59.99
2023-03-21T00:52:24.733Z,59.67
2023-03-21T00:54:59.496Z,59.72
2023-03-21T00:57:38.635Z,60.22
2023-03-21T01:00:10.987Z,60.36
2023-03-21T01:02:43.481Z,61.18
2023-03-21T01:05:33.564Z,60.82
2023-03-21T01:08:04.222Z,60.93
2023-03-21T01:10:33.641Z,61.43
2023-03-21T01:13:01.893Z,61.39
2023-03-21T01:15:31.061Z,61.37
2023-03-21T01:17:59.199Z,61.06
2023-03-21T01:20:29.179Z,60.83
2023-03-21T01:22:57.258Z,60.60
2023-03-21T01:25:25.546Z,60.66
2023-03-21T01:27:54.990Z,61.09
2023-03-21T01:30:24.758Z,61.17
2023-03-21T01:32:53.582Z,60.58
2023-03-21T01:35:22.794Z,60.65
2023-03-21T01:37:52.590Z,59.96
2023-03-21T01:40:23.940Z,60.22
2023-03-21T01:42:56.321Z,60.80
2023-03-21T01:46:22.407Z,60.11
2023-03-21T01:49:28.440Z,60.93
2023-03-21T01:52:23.488Z,60.58
2023-03-21T01:55:01.569Z,60.54
2023-03-21T01:57:49.269Z,60.01
2023-03-21T02:00:29.475Z,60.48
2023-03-21T02:03:34.949Z,60.83
2023-03-21T02:06:44.407Z,60.66
2023-03-21T02:09:29.113Z,61.40
2023-03-21T02:11:59.373Z,61.02
2023-03-21T02:14:33.921Z,61.20
2023-03-21T02:17:16.704Z,61.08
2023-03-21T02:20:28.371Z,61.58
2023-03-21T02:23:33.612Z,61.23
2023-03-21T02:26:52.508Z,61.60
2023-03-21T02:30:29.648Z,61.94
2023-03-21T02:33:41.250Z,62.04
2023-03-21T02:36:36.739Z,62.39
2023-03-21T02:39:15.313Z,62.20
2023-03-21T02:41:51.583Z,62.17
2023-03-21T02:44:40.915Z,61.55
2023-03-21T02:47:13.885Z,61.41
2023-03-21T02:49:48.471Z,61.27
2023-03-21T02:52:37.291Z,61.61
2023-03-21T02:55:15.559Z,61.45
2023-03-21T02:57:56.420Z,61.84
2023-03-21T03:00:29.938Z,61.15
2023-03-21T03:03:08.659Z,61.09
2023-03-21T03:05:43.144Z,62.04
2023-03-21T03:08:38.338Z,61.95
2023-03-21T03:11:25.319Z,61.23
2023-03-21T03:14:35.760Z,61.82
2023-03-21T03:17:17.152Z,61.71
2023-03-21T03:20:16.283Z,61.71
2023-03-21T03:22:55.832Z,61.86
2023-03-21T03:25:42.090Z,62.04
2023-03-21T03:28:18.294Z,61.65
2023-03-21T03:31:05.567Z,62.34
2023-03-21T03:33:45.418Z,62.14
2023-03-21T03:36:33.408Z,62.08
2023-03-21T03:39:12.088Z,62.36
2023-03-21T03:42:07.946Z,62.53
2023-03-21T03:44:43.066Z,62.52
2023-03-21T03:47:26.232Z,62.45
2023-03-21T03:50:09.894Z,62.46
2023-03-21T03:52:55.253Z,62.23
2023-03-21T03:55:28.202Z,62.33
2023-03-21T03:58:03.186Z,61.92
2023-03-21T04:00:34.900Z,62.26
2023-03-21T04:03:03.194Z,62.16
2023-03-21T04:05:32.538Z,62.25
2023-03-21T04:08:00.891Z,62.41
2023-03-21T04:10:36.800Z,61.59
2023-03-21T04:13:05.271Z,61.93
2023-03-21T04:15:52.785Z,61.89
2023-03-21T04:18:23.195Z,62.27
2023-03-21T04:20:52.517Z,61.89
2023-03-21T04:23:20.877Z,62.15
2023-03-21T04:25:56.700Z,62.37
2023-03-21T04:28:31.395Z,62.31
2023-03-21T04:31:22.688Z,61.88
2023-03-21T04:33:56.005Z,61.41
2023-03-21T04:36:27.420Z,61.82
2023-03-21T04:39:00.827Z,62.07
2023-03-21T04:41:29.653Z,61.54
2023-03-21T04:43:58.431Z,62.02
2023-03-21T04:46:28.271Z,61.88
2023-03-21T04:48:56.506Z,62.73
2023-03-21T04:51:24.526Z,62.38
2023-03-21T04:53:57.464Z,62.18
2023-03-21T04:56:32.048Z,61.84
2023-03-21T04:59:01.002Z,61.95
2023-03-21T05:01:31.488Z,62.42
2023-03-21T05:04:00.624Z,62.15
2023-03-21T05:06:30.076Z,61.80
2023-03-21T05:09:01.514Z,61.97
2023-03-21T05:11:30.753Z,62.65
2023-03-21T05:13:59.262Z,62.27
2023-03-21T05:16:30.629Z,62.56
2023-03-21T05:19:04.076Z,62.41
2023-03-21T05:21:41.881Z,63.11
2023-03-21T05:24:17.908Z,63.10
2023-03-21T05:26:50.489Z,62.95
2023-03-21T05:29:20.889Z,62.61
2023-03-21T05:32:00.409Z,62.73
2023-03-21T05:34:30.842Z,62.95
2023-03-21T05:40:16.126Z,62.79
2023-03-21T05:42:47.049Z,62.71
2023-03-21T05:45:22.538Z,62.64
2023-03-21T05:47:51.967Z,63.02
2023-03-21T05:50:24.785Z,62.71
2023-03-21T05:53:07.142Z,62.87
2023-03-21T05:55:35.394Z,62.93
2023-03-21T05:58:05.514Z,62.82
2023-03-21T06:00:34.285Z,62.81
2023-03-21T06:03:19.487Z,62.56
2023-03-21T06:06:00.149Z,62.92
2023-03-21T06:08:35.290Z,62.81
2023-03-21T06:11:03.574Z,62.84
2023-03-21T06:13:35.876Z,63.10
2023-03-21T06:16:04.585Z,63.08
2023-03-21T06:18:35.717Z,62.95
2023-03-21T06:21:24.206Z,63.19
2023-03-21T06:23:54.235Z,63.10
2023-03-21T06:26:23.406Z,62.58
2023-03-21T06:28:54.373Z,62.31
2023-03-21T06:31:25.126Z,61.84
2023-03-21T06:33:56.115Z,61.34
2023-03-21T06:36:25.612Z,60.62
2023-03-21T06:38:54.850Z,60.21
2023-03-21T06:41:23.434Z,59.75
2023-03-21T06:44:02.142Z,58.79
2023-03-21T06:46:33.532Z,58.59
2023-03-21T06:49:01.744Z,58.41
2023-03-21T06:51:32.360Z,57.78
2023-03-21T06:54:11.737Z,56.95
2023-03-21T06:56:42.901Z,57.52
2023-03-21T06:59:14.085Z,57.34
2023-03-21T07:01:54.458Z,56.63
2023-03-21T07:04:22.624Z,56.27
2023-03-21T07:06:52.871Z,56.51
2023-03-21T07:09:24.622Z,56.21
2023-03-21T07:11:54.742Z,56.80
2023-03-21T07:14:27.211Z,56.91
2023-03-21T07:16:56.008Z,57.70
2023-03-21T07:19:24.055Z,57.15
2023-03-21T07:21:53.605Z,56.79
2023-03-21T07:24:21.811Z,57.68
2023-03-21T07:26:50.149Z,58.13
2023-03-21T07:29:21.449Z,58.18
2023-03-21T07:31:50.095Z,59.08
2023-03-21T07:34:18.997Z,58.58
2023-03-21T07:36:47.025Z,58.92
2023-03-21T07:39:17.596Z,58.96
2023-03-21T07:41:45.740Z,59.43
2023-03-21T07:44:31.330Z,58.60
2023-03-21T07:47:04.762Z,58.33
2023-03-21T07:49:33.701Z,57.67
2023-03-21T07:52:05.357Z,57.20
2023-03-21T07:54:38.183Z,57.79
2023-03-21T07:57:07.189Z,58.50
2023-03-21T07:59:35.407Z,58.06
2023-03-21T08:02:03.605Z,57.60
2023-03-21T08:04:32.265Z,58.01
2023-03-21T08:07:00.447Z,57.04
2023-03-21T08:09:30.735Z,56.71
2023-03-21T08:12:00.612Z,55.75
2023-03-21T08:14:28.682Z,55.43
2023-03-21T08:16:56.946Z,55.48
2023-03-21T08:19:24.992Z,56.22
2023-03-21T08:21:53.398Z,55.23
2023-03-21T08:24:21.490Z,55.40
2023-03-21T08:26:49.530Z,54.79
2023-03-21T08:29:19.254Z,54.06
2023-03-21T08:31:47.319Z,53.74
2023-03-21T08:34:15.431Z,54.63
2023-03-21T08:36:43.761Z,54.02
2023-03-21T08:39:12.278Z,53.43
2023-03-21T08:41:40.408Z,52.24
2023-03-21T08:44:09.708Z,52.77
2023-03-21T08:46:39.254Z,51.17
2023-03-21T08:49:07.345Z,51.56
2023-03-21T08:51:37.571Z,50.10
2023-03-21T08:54:06.618Z,49.29
2023-03-21T08:56:36.983Z,48.75
2023-03-21T08:59:05.728Z,49.21
2023-03-21T09:01:35.842Z,49.01
2023-03-21T09:04:07.989Z,49.23
2023-03-21T09:06:36.289Z,47.99
2023-03-21T09:09:05.992Z,48.30
2023-03-21T09:11:34.143Z,47.42
2023-03-21T09:14:02.909Z,46.51
2023-03-21T09:16:31.509Z,44.43
2023-03-21T09:19:00.162Z,45.05
2023-03-21T09:21:29.850Z,45.07
2023-03-21T09:23:59.953Z,45.94
2023-03-21T09:26:28.798Z,46.03
2023-03-21T09:28:58.695Z,45.80
2023-03-21T09:31:28.304Z,46.12
2023-03-21T09:33:57.264Z,45.71
2023-03-21T09:36:27.324Z,46.19
2023-03-21T09:38:57.959Z,45.67
2023-03-21T09:42:06.481Z,46.27
2023-03-21T09:44:51.623Z,46.04
2023-03-21T09:47:25.168Z,45.49
2023-03-21T09:50:12.913Z,45.46
2023-03-21T09:52:49.617Z,46.02
2023-03-21T09:55:23.447Z,46.28
2023-03-21T09:58:02.928Z,46.91
2023-03-21T10:00:39.745Z,46.68
2023-03-21T10:03:24.369Z,46.55
2023-03-21T10:05:57.409Z,45.34
2023-03-21T10:08:32.062Z,45.96
2023-03-21T10:11:07.862Z,44.79
2023-03-21T10:13:43.526Z,45.24
2023-03-21T10:16:16.309Z,45.99
2023-03-21T10:18:46.759Z,45.35
2023-03-21T10:21:51.384Z,44.78
2023-03-21T10:24:15.083Z,44.87
2023-03-21T10:26:45.411Z,45.28
2023-03-21T10:29:16.561Z,45.17
2023-03-21T10:31:46.362Z,44.23
2023-03-21T10:34:19.746Z,43.66
2023-03-21T10:36:48.218Z,44.59
2023-03-21T10:39:28.142Z,44.38
2023-03-21T10:41:57.704Z,44.13
2023-03-21T10:44:32.183Z,43.46
2023-03-21T10:47:06.214Z,43.85
2023-03-21T10:49:40.588Z,43.88
2023-03-21T10:52:23.227Z,43.84
2023-03-21T10:55:05.444Z,44.05
2023-03-21T10:57:38.005Z,42.84
2023-03-21T11:00:15.150Z,43.87
2023-03-21T11:02:44.096Z,44.01
2023-03-21T11:05:23.503Z,43.81
2023-03-21T11:08:00.879Z,44.52
2023-03-21T11:10:33.081Z,43.46
2023-03-21T11:13:09.823Z,42.56
2023-03-21T11:15:49.982Z,43.79
2023-03-21T11:18:23.259Z,43.55
2023-03-21T11:20:55.653Z,43.05
2023-03-21T11:23:29.593Z,43.19
2023-03-21T11:26:00.478Z,43.87
2023-03-21T11:28:38.200Z,44.87
2023-03-21T11:31:09.268Z,44.38
2023-03-21T11:33:40.682Z,43.73
2023-03-21T11:36:33.727Z,44.25
2023-03-21T11:39:31.541Z,44.77
2023-03-21T11:42:01.022Z,45.27
2023-03-21T11:44:33.830Z,45.40
2023-03-21T11:47:02.815Z,46.09
2023-03-21T11:49:31.774Z,46.97
2023-03-21T11:52:19.221Z,45.83
2023-03-21T11:55:25.798Z,46.09
2023-03-21T11:58:14.746Z,45.42
2023-03-21T12:00:57.298Z,44.99
2023-03-21T12:03:49.299Z,45.35
2023-03-21T12:06:29.682Z,45.59
2023-03-21T12:09:13.886Z,46.33
2023-03-21T12:11:57.620Z,46.31
2023-03-21T12:14:36.943Z,46.46
2023-03-21T12:17:21.860Z,45.43
2023-03-21T12:20:19.227Z,46.80
2023-03-21T12:23:02.769Z,46.42
2023-03-21T12:25:36.599Z,45.95
2023-03-21T12:28:32.421Z,46.70
2023-03-21T12:31:14.405Z,44.93
2023-03-21T12:34:00.278Z,45.32
2023-03-21T12:36:46.178Z,44.88
2023-03-21T12:39:27.978Z,44.76
2023-03-21T12:42:17.263Z,45.44
2023-03-21T12:45:16.671Z,44.06
2023-03-21T12:47:52.469Z,44.38
2023-03-21T12:50:27.401Z,45.42
2023-03-21T12:53:00.034Z,44.20
2023-03-21T12:55:31.785Z,45.03
2023-03-21T12:58:05.802Z,45.91
2023-03-21T13:00:42.464Z,44.85
2023-03-21T13:03:19.547Z,44.66
2023-03-21T13:05:58.228Z,44.06
2023-03-21T13:08:33.545Z,43.84
2023-03-21T13:11:03.200Z,43.07
2023-03-21T13:13:37.233Z,42.77
2023-03-21T13:16:11.902Z,42.66
2023-03-21T13:19:00.300Z,42.11
2023-03-21T13:21:44.141Z,42.70
2023-03-21T13:24:29.472Z,43.58
2023-03-21T13:27:06.664Z,43.37
2023-03-21T13:29:45.706Z,42.33
2023-03-21T13:32:26.215Z,42.02
2023-03-21T13:35:04.625Z,42.01
2023-03-21T13:37:36.775Z,42.34
2023-03-21T13:40:12.777Z,41.32
2023-03-21T13:42:46.844Z,41.12
2023-03-21T13:45:31.669Z,41.77
2023-03-21T13:48:04.911Z,41.64
2023-03-21T13:51:00.674Z,42.56
2023-03-21T13:53:37.082Z,42.86
2023-03-21T13:56:24.492Z,44.11
2023-03-21T13:59:01.730Z,45.29
2023-03-21T14:01:34.819Z,46.60
2023-03-21T14:04:13.566Z,47.14
2023-03-21T14:06:49.236Z,47.20
2023-03-21T14:09:26.520Z,48.02
2023-03-21T14:11:58.763Z,47.22
2023-03-21T14:14:39.492Z,47.39
2023-03-21T14:17:14.349Z,47.38
2023-03-21T14:19:42.610Z,47.45
2023-03-21T14:22:12.613Z,47.66
2023-03-21T14:24:47.793Z,47.72
2023-03-21T14:27:16.069Z,47.23
2023-03-21T14:29:46.658Z,46.76
2023-03-21T14:32:23.614Z,47.15
2023-03-21T14:34:52.087Z,46.97
2023-03-21T14:37:33.191Z,47.45
2023-03-21T14:40:08.931Z,47.50
2023-03-21T14:42:39.029Z,47.98
2023-03-21T14:45:20.643Z,47.80
2023-03-21T14:48:01.430Z,48.24
2023-03-21T14:50:41.129Z,48.43
2023-03-21T14:53:16.679Z,49.11
2023-03-21T14:55:51.429Z,48.52
2023-03-21T14:58:20.049Z,48.64
2023-03-21T15:00:53.160Z,48.56
2023-03-21T15:03:26.838Z,48.82
2023-03-21T15:05:55.432Z,48.84
2023-03-21T15:08:27.084Z,48.13
2023-03-21T15:11:06.954Z,48.54
2023-03-21T15:13:38.731Z,49.04
2023-03-21T15:16:08.353Z,48.89
2023-03-21T15:18:40.091Z,48.76
2023-03-21T15:21:13.883Z,48.73
2023-03-21T15:23:45.543Z,49.05
2023-03-21T15:26:18.645Z,49.12
2023-03-21T15:28:50.515Z,48.60
2023-03-21T15:31:22.178Z,49.18
2023-03-21T15:33:52.148Z,49.60
2023-03-21T15:36:23.942Z,49.10
2023-03-21T15:38:53.466Z,49.13
2023-03-21T15:41:31.947Z,48.53
2023-03-21T15:44:14.413Z,49.51
2023-03-21T15:46:46.313Z,49.46
2023-03-21T15:49:27.266Z,49.17
2023-03-21T15:52:02.434Z,49.63
2023-03-21T15:54:34.203Z,49.96
2023-03-21T15:57:09.651Z,50.23
2023-03-21T15:59:42.179Z,49.79
2023-03-21T16:02:20.242Z,50.03
2023-03-21T16:05:02.701Z,49.84
2023-03-21T16:07:34.634Z,49.80
2023-03-21T16:10:05.935Z,50.42
2023-03-21T16:12:35.373Z,50.63
2023-03-21T16:15:03.493Z,50.56
2023-03-21T16:17:37.718Z,51.16
2023-03-21T16:20:17.822Z,50.43
2023-03-21T16:22:46.023Z,50.43
2023-03-21T16:25:14.244Z,50.84
2023-03-21T16:27:44.345Z,51.17
2023-03-21T16:30:14.796Z,50.96
2023-03-21T16:32:43.307Z,50.89
2023-03-21T16:35:12.174Z,51.00
2023-03-21T16:37:41.309Z,50.89
2023-03-21T16:40:23.824Z,51.17
2023-03-21T16:42:53.375Z,50.70
2023-03-21T16:45:21.559Z,50.83
2023-03-21T16:47:50.216Z,50.91
2023-03-21T16:50:27.716Z,51.46
2023-03-21T16:52:57.440Z,51.48
2023-03-21T16:55:26.295Z,51.61
2023-03-21T16:57:57.623Z,52.65
2023-03-21T17:00:29.431Z,52.13
2023-03-21T17:03:01.634Z,51.86
2023-03-21T17:05:31.356Z,51.98
2023-03-21T17:08:02.164Z,51.74
2023-03-21T17:10:32.856Z,52.39
2023-03-21T17:13:02.387Z,52.56
2023-03-21T17:15:30.691Z,52.67
2023-03-21T17:17:58.836Z,52.07
2023-03-21T17:20:31.890Z,52.50
2023-03-21T17:23:00.980Z,52.53
2023-03-21T17:25:29.505Z,53.17
2023-03-21T17:27:57.664Z,53.31
2023-03-21T17:30:30.331Z,53.61
2023-03-21T17:32:58.748Z,53.38
2023-03-21T17:35:29.491Z,53.23
2023-03-21T17:37:59.203Z,52.68
2023-03-21T17:40:31.268Z,52.74
2023-03-21T17:43:01.325Z,52.99
2023-03-21T17:45:31.067Z,52.78
2023-03-21T17:47:59.481Z,52.73
2023-03-21T17:50:34.263Z,52.51
2023-03-21T17:53:02.328Z,53.46
2023-03-21T17:55:31.421Z,53.66
2023-03-21T17:57:59.641Z,54.18
2023-03-21T18:00:32.114Z,54.71
2023-03-21T18:03:00.547Z,55.44
2023-03-21T18:05:29.643Z,56.04
2023-03-21T18:08:13.308Z,56.86
2023-03-21T18:10:42.907Z,56.87
2023-03-21T18:13:11.796Z,57.38
2023-03-21T18:15:44.196Z,57.43
2023-03-21T18:18:14.818Z,58.26
2023-03-21T18:20:51.615Z,58.17
2023-03-21T18:23:21.398Z,57.62
2023-03-21T18:25:52.200Z,57.51
2023-03-21T18:28:21.451Z,57.51
2023-03-21T18:31:08.661Z,57.59
2023-03-21T18:33:40.401Z,58.14
2023-03-21T18:36:09.715Z,58.63
2023-03-21T18:38:39.598Z,58.64
2023-03-21T18:41:08.642Z,59.00
2023-03-21T18:44:01.213Z,59.27
2023-03-21T18:46:27.204Z,59.90
2023-03-21T18:48:55.660Z,60.37
2023-03-21T18:51:24.116Z,60.85
2023-03-21T18:53:52.341Z,60.64
2023-03-21T18:57:20.114Z,60.31
2023-03-21T18:59:09.527Z,60.29
2023-03-21T19:01:39.430Z,59.84
2023-03-21T19:04:21.284Z,60.07
2023-03-21T19:06:53.570Z,59.80
2023-03-21T19:09:29.475Z,59.70
2023-03-21T19:11:59.684Z,60.37
2023-03-21T19:14:28.305Z,60.43
2023-03-21T19:19:47.757Z,61.21
2023-03-21T19:22:16.677Z,61.11
2023-03-21T19:24:44.874Z,60.94
2023-03-21T19:27:13.272Z,61.06
2023-03-21T19:29:41.670Z,60.93
2023-03-21T19:32:12.073Z,61.05
2023-03-21T19:34:40.272Z,61.13
2023-03-21T19:37:08.519Z,61.21
2023-03-21T19:39:37.948Z,61.24
2023-03-21T19:42:15.906Z,60.94
2023-03-21T19:44:45.756Z,60.58
2023-03-21T19:47:15.358Z,60.40
2023-03-21T19:50:32.415Z,59.99
2023-03-21T19:52:34.348Z,59.76
2023-03-21T19:55:02.580Z,59.25
2023-03-21T19:57:30.825Z,59.04
2023-03-21T19:59:59.079Z,59.17
2023-03-21T20:02:36.905Z,59.56
2023-03-21T20:05:06.686Z,59.65
2023-03-21T20:07:34.996Z,59.86
2023-03-21T20:10:03.062Z,59.52
2023-03-21T20:12:32.210Z,58.66
2023-03-21T20:15:12.183Z,57.57
2023-03-21T20:17:46.835Z,57.32
2023-03-21T20:20:18.061Z,56.98
2023-03-21T20:25:41.250Z,57.90
2023-03-21T20:28:17.171Z,57.70
2023-03-21T20:30:54.003Z,58.44
2023-03-21T20:33:23.761Z,58.46
2023-03-21T20:38:47.909Z,58.58
2023-03-21T20:41:16.630Z,58.55
2023-03-21T20:44:31.547Z,58.92
2023-03-21T20:46:33.118Z,59.07
2023-03-21T20:49:05.727Z,59.38
2023-03-21T20:54:22.373Z,59.76
2023-03-21T20:56:50.882Z,59.53
2023-03-21T20:59:26.394Z,59.16
2023-03-21T21:01:57.260Z,58.58
2023-03-21T21:07:18.158Z,57.23
2023-03-21T21:09:46.879Z,56.86
2023-03-21T21:12:19.005Z,56.20
2023-03-21T21:14:47.871Z,56.08
2023-03-21T21:17:34.027Z,56.15
2023-03-21T21:20:16.204Z,56.00
2023-03-21T21:22:58.469Z,55.92
2023-03-21T21:25:30.798Z,55.81
2023-03-21T21:27:59.161Z,55.91
2023-03-21T21:30:29.266Z,55.70
2023-03-21T21:32:59.764Z,55.76
2023-03-21T21:35:29.379Z,55.89
2023-03-21T21:37:57.473Z,55.62
2023-03-21T21:40:25.731Z,56.27
2023-03-21T21:42:54.128Z,55.97
2023-03-21T21:45:22.292Z,55.77
2023-03-21T21:47:50.911Z,55.76
2023-03-21T21:50:22.022Z,55.73
2023-03-21T21:52:54.530Z,55.73
2023-03-21T21:55:23.219Z,55.89
2023-03-21T21:57:51.469Z,55.77
2023-03-21T22:00:21.364Z,56.02
2023-03-21T22:02:49.618Z,56.18
2023-03-21T22:05:18.877Z,55.82
2023-03-21T22:07:47.478Z,56.14
2023-03-21T22:10:17.175Z,55.95
2023-03-21T22:12:45.388Z,56.25
2023-03-21T22:15:14.258Z,56.17
2023-03-21T22:17:42.698Z,56.51
2023-03-21T22:20:20.248Z,56.41
2023-03-21T22:22:49.365Z,56.69
2023-03-21T22:25:19.048Z,56.75
2023-03-21T22:27:47.185Z,56.72
2023-03-21T22:30:19.341Z,56.85
2023-03-21T22:33:02.440Z,56.42
2023-03-21T22:35:34.549Z,56.44
2023-03-21T22:40:56.733Z,55.65
2023-03-21T22:43:25.426Z,55.42
2023-03-21T22:45:54.235Z,55.50
2023-03-21T22:48:23.117Z,54.78
2023-03-21T22:50:51.282Z,54.86
2023-03-21T22:53:19.284Z,54.96
2023-03-21T22:55:47.377Z,55.08
2023-03-21T22:58:17.420Z,55.24
2023-03-21T23:00:45.531Z,55.14
2023-03-21T23:03:14.608Z,55.33
2023-03-21T23:05:43.241Z,55.69
2023-03-21T23:08:11.419Z,56.08
2023-03-21T23:10:40.931Z,56.13
2023-03-21T23:13:09.246Z,55.63
2023-03-21T23:15:39.780Z,55.78
2023-03-21T23:18:08.593Z,56.08
2023-03-21T23:20:37.526Z,56.05
2023-03-21T23:23:05.794Z,56.68
2023-03-21T23:25:38.634Z,56.81
2023-03-21T23:28:08.246Z,56.93
2023-03-21T23:30:39.898Z,56.48
2023-03-21T23:33:08.202Z,56.41
2023-03-21T23:35:38.404Z,56.23
2023-03-21T23:38:06.780Z,56.21
2023-03-21T23:40:34.793Z,56.64
2023-03-21T23:43:02.997Z,56.50
2023-03-21T23:45:31.049Z,56.56
2023-03-21T23:48:00.805Z,56.26
2023-03-21T23:50:28.936Z,56.65
2023-03-21T23:52:56.947Z,56.39
2023-03-21T23:55:25.027Z,56.94
2023-03-21T23:57:58.848Z,56.31
